Time;durP1;ratioP1;P1;durP2;ratioP2;P2;SDS_P1;SDS_P2;PMS_P1;PMS_P2;Temp;Humidity;BMP_temperature;BMP_pressure;BME280_temperature;BME280_humidity;BME280_pressure;Samples;Min_cycle;Max_cycle;Signal;HPM_P1;HPM_P2
2023/11/07 00:02:06;;;;;;;0.40;0.40;;;8.10;99.90;;;;;;5007804;28;20458;-65
2023/11/07 00:04:32;;;;;;;0.70;0.60;;;8.00;99.90;;;;;;5010909;28;20207;-65
2023/11/07 00:06:58;;;;;;;0.30;0.30;;;8.10;99.90;;;;;;5013314;28;20172;-65
2023/11/07 00:09:25;;;;;;;0.30;0.30;;;8.10;99.90;;;;;;5010396;28;20263;-65
2023/11/07 00:11:51;;;;;;;0.30;0.30;;;8.00;99.90;;;;;;5003852;28;20199;-65
2023/11/07 00:14:21;;;;;;;0.40;0.40;;;8.00;99.90;;;;;;5007564;28;20266;-65
2023/11/07 00:16:50;;;;;;;0.30;0.30;;;8.00;99.90;;;;;;5007469;28;20175;-65
2023/11/07 00:19:18;;;;;;;0.43;0.43;;;8.20;99.90;;;;;;5008433;28;20241;-65
2023/11/07 00:21:44;;;;;;;0.50;0.40;;;8.20;99.90;;;;;;5010646;28;20286;-65
2023/11/07 00:24:17;;;;;;;0.30;0.30;;;8.20;99.90;;;;;;5010694;28;20279;-65
2023/11/07 00:26:43;;;;;;;0.50;0.50;;;8.20;99.90;;;;;;5013943;28;20409;-65
2023/11/07 00:29:11;;;;;;;1.50;0.90;;;8.20;99.90;;;;;;5014032;28;20237;-65
2023/11/07 00:31:37;;;;;;;0.60;0.60;;;8.20;99.90;;;;;;5012714;28;20183;-65
2023/11/07 00:34:06;;;;;;;0.30;0.30;;;8.20;99.90;;;;;;5012409;28;20175;-65
2023/11/07 00:36:32;;;;;;;1.17;0.50;;;8.20;99.90;;;;;;5013871;28;20242;-66
2023/11/07 00:39:02;;;;;;;0.40;0.30;;;8.10;99.90;;;;;;5010244;28;20176;-65
2023/11/07 00:41:28;;;;;;;0.30;0.30;;;8.20;99.90;;;;;;4996663;28;20462;-65
2023/11/07 00:44:00;;;;;;;0.30;0.30;;;8.00;99.90;;;;;;5013832;28;20176;-65
2023/11/07 00:46:26;;;;;;;0.60;0.60;;;8.00;99.90;;;;;;5012519;28;20205;-65
2023/11/07 00:48:53;;;;;;;0.40;0.40;;;7.90;99.90;;;;;;5013397;28;20176;-65
2023/11/07 00:51:18;;;;;;;0.30;0.30;;;7.90;99.90;;;;;;5013748;28;20179;-65
2023/11/07 00:53:44;;;;;;;0.50;0.40;;;7.90;99.90;;;;;;5012273;28;20177;-65
2023/11/07 00:56:10;;;;;;;0.63;0.63;;;8.00;99.90;;;;;;4975224;28;1134233;-65
2023/11/07 00:58:36;;;;;;;0.40;0.40;;;8.10;99.90;;;;;;5013364;28;20191;-65
2023/11/07 01:01:02;;;;;;;0.30;0.30;;;8.10;99.90;;;;;;5015339;28;20206;-65
2023/11/07 01:03:28;;;;;;;1.07;0.60;;;8.10;99.90;;;;;;5013866;28;20469;-65
2023/11/07 01:05:54;;;;;;;0.30;0.30;;;8.10;99.90;;;;;;5014915;28;20426;-65
2023/11/07 01:08:21;;;;;;;0.30;0.30;;;8.20;99.90;;;;;;5014476;28;20784;-65
2023/11/07 01:10:47;;;;;;;0.73;0.45;;;8.20;99.90;;;;;;5015139;28;20406;-65
2023/11/07 01:13:14;;;;;;;0.40;0.40;;;8.20;99.90;;;;;;5014896;28;20653;-65
2023/11/07 01:15:40;;;;;;;0.65;0.40;;;8.30;99.90;;;;;;5013487;28;20442;-65
2023/11/07 01:18:06;;;;;;;0.50;0.50;;;8.30;99.90;;;;;;5014544;28;20206;-65
2023/11/07 01:20:33;;;;;;;8.17;2.73;;;8.20;99.90;;;;;;5014788;28;20657;-65
2023/11/07 01:22:59;;;;;;;0.30;0.30;;;8.20;99.90;;;;;;5014601;28;20689;-65
2023/11/07 01:25:24;;;;;;;0.30;0.30;;;8.10;99.90;;;;;;5014495;28;20290;-65
2023/11/07 01:27:52;;;;;;;0.30;0.30;;;8.10;99.90;;;;;;5014435;28;20274;-66
2023/11/07 01:30:18;;;;;;;0.30;0.30;;;8.20;99.90;;;;;;5034883;23;20231;-61
2023/11/07 01:32:44;;;;;;;0.30;0.30;;;8.30;99.90;;;;;;5013851;28;20256;-61
2023/11/07 01:35:09;;;;;;;0.30;0.30;;;8.30;99.90;;;;;;5014438;28;20667;-61
2023/11/07 01:37:38;;;;;;;0.30;0.30;;;8.40;99.90;;;;;;5013311;28;20301;-61
2023/11/07 01:40:04;;;;;;;0.30;0.30;;;8.40;99.90;;;;;;5014257;28;20198;-61
2023/11/07 01:42:30;;;;;;;0.45;0.45;;;8.40;99.90;;;;;;5014473;28;20210;-61
2023/11/07 01:44:55;;;;;;;0.60;0.60;;;8.40;99.90;;;;;;5014490;28;20171;-61
2023/11/07 01:47:25;;;;;;;0.30;0.30;;;8.30;99.90;;;;;;5014405;28;20181;-61
2023/11/07 01:49:52;;;;;;;0.30;0.30;;;8.30;99.90;;;;;;5014010;28;20191;-61
2023/11/07 01:52:18;;;;;;;0.50;0.50;;;8.40;99.90;;;;;;5014413;28;20172;-61
2023/11/07 01:54:46;;;;;;;0.30;0.30;;;8.40;99.90;;;;;;5014480;28;20191;-61
2023/11/07 01:57:12;;;;;;;0.40;0.40;;;8.40;99.90;;;;;;5014117;28;20234;-61
2023/11/07 01:59:39;;;;;;;0.40;0.40;;;8.40;99.90;;;;;;5013998;28;20688;-61
2023/11/07 02:02:10;;;;;;;0.60;0.60;;;8.40;99.90;;;;;;5014126;28;20249;-61
2023/11/07 02:04:36;;;;;;;0.40;0.40;;;8.30;99.90;;;;;;5014089;28;20660;-61
2023/11/07 02:07:01;;;;;;;1.03;1.03;;;8.30;99.90;;;;;;5013962;28;20175;-61
2023/11/07 02:09:27;;;;;;;0.40;0.40;;;8.30;99.90;;;;;;5013910;28;20196;-61
2023/11/07 02:11:53;;;;;;;0.40;0.40;;;8.30;99.90;;;;;;5013983;28;20505;-61
2023/11/07 02:14:38;;;;;;;0.40;0.40;;;8.30;99.90;;;;;;5014001;28;20175;-61
2023/11/07 02:17:04;;;;;;;0.50;0.50;;;8.20;99.90;;;;;;5013747;28;20167;-61
2023/11/07 02:19:30;;;;;;;0.40;0.40;;;8.20;99.90;;;;;;5013592;28;20774;-61
2023/11/07 02:22:01;;;;;;;0.40;0.40;;;8.20;99.90;;;;;;5013686;28;20237;-61
2023/11/07 02:24:30;;;;;;;0.40;0.40;;;8.30;99.90;;;;;;5013722;28;20179;-61
2023/11/07 02:26:58;;;;;;;0.40;0.40;;;8.20;99.90;;;;;;5013561;28;20645;-61
2023/11/07 02:29:24;;;;;;;0.32;0.32;;;8.00;99.90;;;;;;5013193;28;20219;-61
2023/11/07 02:31:50;;;;;;;0.53;0.53;;;8.00;99.90;;;;;;5013859;28;20250;-61
2023/11/07 02:34:19;;;;;;;0.40;0.40;;;7.80;99.90;;;;;;5013727;28;21038;-61
2023/11/07 02:36:45;;;;;;;0.40;0.40;;;7.80;99.90;;;;;;5013369;28;20187;-61
2023/11/07 02:39:12;;;;;;;0.60;0.60;;;7.80;99.90;;;;;;5013239;28;20573;-61
2023/11/07 02:41:39;;;;;;;0.38;0.38;;;7.70;99.90;;;;;;5013285;28;20206;-61
2023/11/07 02:44:05;;;;;;;0.30;0.30;;;7.60;99.90;;;;;;5013286;28;20178;-61
2023/11/07 02:46:30;;;;;;;0.80;0.80;;;7.70;99.90;;;;;;5013282;28;20259;-61
2023/11/07 02:48:56;;;;;;;0.93;0.50;;;7.80;99.90;;;;;;5012842;28;20449;-61
2023/11/07 02:51:23;;;;;;;0.50;0.50;;;7.90;99.90;;;;;;5013183;28;20172;-61
2023/11/07 02:53:50;;;;;;;0.75;0.60;;;7.90;99.90;;;;;;5013299;28;20183;-61
2023/11/07 02:56:17;;;;;;;0.70;0.70;;;8.00;99.90;;;;;;5013041;28;20187;-61
2023/11/07 02:58:43;;;;;;;0.30;0.30;;;7.90;99.90;;;;;;5012683;28;20184;-61
2023/11/07 03:01:09;;;;;;;0.40;0.40;;;7.80;99.90;;;;;;5012986;28;20218;-61
2023/11/07 03:03:35;;;;;;;0.38;0.38;;;7.80;99.90;;;;;;5013205;28;20443;-61
2023/11/07 03:06:01;;;;;;;0.50;0.50;;;7.70;99.90;;;;;;5012835;28;20300;-61
2023/11/07 03:08:27;;;;;;;0.60;0.60;;;7.70;99.90;;;;;;5012716;28;20409;-61
2023/11/07 03:10:53;;;;;;;0.30;0.30;;;7.70;99.90;;;;;;5012772;28;20513;-61
2023/11/07 03:13:20;;;;;;;0.40;0.40;;;7.70;99.90;;;;;;5012796;28;20186;-61
2023/11/07 03:15:47;;;;;;;0.30;0.30;;;7.70;99.90;;;;;;5012986;28;20461;-61
2023/11/07 03:18:12;;;;;;;0.30;0.30;;;7.80;99.90;;;;;;5012609;28;20183;-61
2023/11/07 03:20:38;;;;;;;0.40;0.40;;;7.80;99.90;;;;;;5012641;28;20583;-61
2023/11/07 03:23:04;;;;;;;1.70;1.03;;;7.80;99.90;;;;;;5012676;28;20264;-61
2023/11/07 03:25:30;;;;;;;0.40;0.40;;;7.90;99.90;;;;;;5012658;28;20413;-61
2023/11/07 03:27:55;;;;;;;0.40;0.40;;;7.70;99.90;;;;;;5012458;28;20171;-61
2023/11/07 03:30:21;;;;;;;0.80;0.80;;;7.60;99.90;;;;;;5012253;28;20692;-61
2023/11/07 03:32:47;;;;;;;0.40;0.40;;;7.60;99.90;;;;;;5012688;28;20189;-61
2023/11/07 03:35:12;;;;;;;0.77;0.77;;;7.60;99.90;;;;;;5012430;28;20182;-61
2023/11/07 03:37:39;;;;;;;0.60;0.60;;;7.60;99.90;;;;;;5012430;28;20265;-61
2023/11/07 03:40:06;;;;;;;0.40;0.40;;;7.70;99.90;;;;;;5012141;28;20203;-61
2023/11/07 03:42:32;;;;;;;0.40;0.40;;;7.70;99.90;;;;;;5012484;28;20209;-61
2023/11/07 03:44:58;;;;;;;0.30;0.30;;;7.60;99.90;;;;;;5012439;28;20602;-61
2023/11/07 03:47:24;;;;;;;4.70;0.55;;;7.60;99.90;;;;;;5010896;28;20540;-61
2023/11/07 03:49:51;;;;;;;0.40;0.40;;;7.50;99.90;;;;;;5012120;28;20210;-61
2023/11/07 03:52:17;;;;;;;0.40;0.40;;;7.60;99.90;;;;;;5012253;28;20195;-61
2023/11/07 03:54:43;;;;;;;0.40;0.40;;;7.60;99.90;;;;;;5012185;28;20206;-61
2023/11/07 03:57:08;;;;;;;0.40;0.40;;;7.80;99.90;;;;;;5011929;28;20194;-61
2023/11/07 03:59:34;;;;;;;0.30;0.30;;;7.70;99.90;;;;;;5011269;28;20191;-61
2023/11/07 04:02:02;;;;;;;0.30;0.30;;;7.60;99.90;;;;;;5012038;28;20619;-61
2023/11/07 04:04:28;;;;;;;0.40;0.40;;;7.50;99.90;;;;;;5012161;28;20190;-61
2023/11/07 04:06:54;;;;;;;0.40;0.40;;;7.50;99.90;;;;;;5011953;28;20556;-61
2023/11/07 04:09:21;;;;;;;0.43;0.43;;;7.40;99.90;;;;;;5011686;28;20192;-61
2023/11/07 04:11:46;;;;;;;0.45;0.45;;;7.30;99.90;;;;;;5011975;28;20248;-61
2023/11/07 04:14:13;;;;;;;0.80;0.80;;;7.30;99.90;;;;;;5011974;28;20213;-61
2023/11/07 04:16:40;;;;;;;0.45;0.45;;;7.20;99.90;;;;;;5011863;28;20418;-61
2023/11/07 04:19:05;;;;;;;0.40;0.40;;;7.20;99.90;;;;;;5011610;28;20210;-61
2023/11/07 04:21:33;;;;;;;0.30;0.30;;;7.20;99.90;;;;;;5011844;28;20194;-61
2023/11/07 04:23:59;;;;;;;0.32;0.32;;;7.20;99.90;;;;;;5012352;28;20697;-61
2023/11/07 04:26:24;;;;;;;0.40;0.40;;;7.10;99.90;;;;;;5012049;28;20198;-61
2023/11/07 04:28:50;;;;;;;0.40;0.40;;;7.10;99.90;;;;;;5011552;28;20421;-61
2023/11/07 04:31:16;;;;;;;1.70;1.00;;;7.10;99.90;;;;;;5011841;28;20601;-61
2023/11/07 04:33:42;;;;;;;0.40;0.40;;;7.00;99.90;;;;;;5011794;28;20416;-61
2023/11/07 04:36:08;;;;;;;0.40;0.40;;;7.00;99.90;;;;;;5011713;28;20420;-61
2023/11/07 04:38:34;;;;;;;0.73;0.57;;;7.00;99.90;;;;;;5011390;28;20243;-61
2023/11/07 04:41:00;;;;;;;0.40;0.40;;;7.00;99.90;;;;;;5011691;28;20216;-61
2023/11/07 04:43:29;;;;;;;0.37;0.37;;;6.90;99.90;;;;;;5011672;28;20609;-61
2023/11/07 04:45:55;;;;;;;0.30;0.30;;;6.80;99.90;;;;;;5011635;28;20177;-60
2023/11/07 04:48:21;;;;;;;0.33;0.33;;;6.70;99.90;;;;;;5011500;28;20396;-61
2023/11/07 04:50:46;;;;;;;0.50;0.40;;;6.80;99.90;;;;;;5011593;28;20247;-61
2023/11/07 04:53:12;;;;;;;3.70;0.50;;;6.80;99.90;;;;;;5011542;28;20440;-61
2023/11/07 04:55:37;;;;;;;0.47;0.47;;;6.80;99.90;;;;;;5011600;28;20675;-61
2023/11/07 04:58:03;;;;;;;0.40;0.40;;;6.80;99.90;;;;;;5011434;28;20174;-61
2023/11/07 05:00:29;;;;;;;0.40;0.40;;;7.00;99.90;;;;;;5011561;28;20194;-61
2023/11/07 05:02:55;;;;;;;0.30;0.30;;;7.10;99.90;;;;;;5011524;28;20212;-61
2023/11/07 05:05:20;;;;;;;0.40;0.40;;;7.10;99.90;;;;;;5011490;28;20187;-61
2023/11/07 05:07:47;;;;;;;1.37;1.03;;;7.20;99.90;;;;;;5011224;28;20181;-61
2023/11/07 05:10:12;;;;;;;0.30;0.30;;;7.20;99.90;;;;;;5011515;28;20190;-61
2023/11/07 05:12:41;;;;;;;1.00;1.00;;;7.20;99.90;;;;;;5015087;28;20719;-61
2023/11/07 05:15:07;;;;;;;0.30;0.30;;;7.20;99.90;;;;;;5014985;28;20178;-61
2023/11/07 05:17:33;;;;;;;0.40;0.40;;;7.10;99.90;;;;;;5014910;28;20185;-61
2023/11/07 05:19:58;;;;;;;0.30;0.30;;;7.10;99.90;;;;;;5014749;28;20610;-61
2023/11/07 05:22:24;;;;;;;0.30;0.30;;;7.20;99.90;;;;;;5014756;28;20206;-61
2023/11/07 05:24:51;;;;;;;0.70;0.60;;;7.30;99.90;;;;;;5014819;28;20174;-61
2023/11/07 05:27:17;;;;;;;1.05;0.70;;;7.20;99.90;;;;;;5014638;28;20580;-61
2023/11/07 05:29:42;;;;;;;0.30;0.30;;;7.30;99.90;;;;;;5014649;28;20218;-61
2023/11/07 05:32:08;;;;;;;0.30;0.30;;;7.40;99.90;;;;;;5014750;28;20174;-61
2023/11/07 05:34:39;;;;;;;0.40;0.40;;;7.40;99.90;;;;;;5014527;28;20208;-61
2023/11/07 05:37:04;;;;;;;0.50;0.50;;;7.50;99.90;;;;;;5014280;28;20189;-61
2023/11/07 05:39:30;;;;;;;0.60;0.60;;;7.60;99.90;;;;;;5014179;28;20199;-61
2023/11/07 05:41:56;;;;;;;0.93;0.93;;;7.70;99.90;;;;;;5014453;28;20959;-61
2023/11/07 05:44:22;;;;;;;1.10;1.10;;;7.70;99.90;;;;;;5014490;28;20326;-61
2023/11/07 05:46:48;;;;;;;0.52;0.52;;;7.70;99.90;;;;;;5014215;28;20189;-60
2023/11/07 05:49:14;;;;;;;0.30;0.30;;;7.70;99.90;;;;;;5014130;28;20204;-61
2023/11/07 05:51:39;;;;;;;0.63;0.63;;;7.70;99.90;;;;;;5014259;28;20177;-61
2023/11/07 05:54:05;;;;;;;1.07;0.73;;;7.70;99.90;;;;;;5014218;28;20204;-61
2023/11/07 05:56:31;;;;;;;0.60;0.60;;;7.80;99.90;;;;;;5014164;28;20185;-61
2023/11/07 05:58:56;;;;;;;0.77;0.77;;;7.70;99.90;;;;;;5013834;28;20203;-61
2023/11/07 06:01:22;;;;;;;0.30;0.30;;;7.70;99.90;;;;;;5014072;28;20203;-61
2023/11/07 06:03:50;;;;;;;0.30;0.30;;;7.70;99.90;;;;;;5013945;28;20168;-61
2023/11/07 06:06:15;;;;;;;0.40;0.40;;;7.70;99.90;;;;;;5013891;28;20267;-61
2023/11/07 06:08:41;;;;;;;0.50;0.50;;;7.60;99.90;;;;;;5013711;28;20257;-61
2023/11/07 06:11:07;;;;;;;2.20;2.00;;;7.60;99.90;;;;;;5013972;28;20255;-62
2023/11/07 06:13:32;;;;;;;1.43;0.50;;;7.60;99.90;;;;;;5014044;28;20218;-61
2023/11/07 06:15:58;;;;;;;0.50;0.50;;;7.70;99.90;;;;;;5013666;28;20170;-61
2023/11/07 06:18:24;;;;;;;0.50;0.43;;;7.70;99.90;;;;;;5013345;28;20167;-61
2023/11/07 06:20:50;;;;;;;0.40;0.40;;;7.70;99.90;;;;;;5013384;28;20203;-61
2023/11/07 06:23:15;;;;;;;0.53;0.53;;;7.70;99.90;;;;;;5013137;28;20418;-61
2023/11/07 06:25:42;;;;;;;0.60;0.60;;;7.60;99.90;;;;;;5013612;28;20195;-61
2023/11/07 06:28:08;;;;;;;0.30;0.30;;;7.60;99.90;;;;;;5013313;28;20258;-60
2023/11/07 06:30:34;;;;;;;0.30;0.30;;;7.70;99.90;;;;;;5013274;28;20221;-61
2023/11/07 06:33:00;;;;;;;0.55;0.55;;;7.80;99.90;;;;;;5013272;28;20188;-61
2023/11/07 06:35:26;;;;;;;0.30;0.30;;;7.80;99.90;;;;;;5013358;28;20639;-61
2023/11/07 06:37:52;;;;;;;0.60;0.60;;;7.80;99.90;;;;;;5013471;28;20179;-61
2023/11/07 06:40:18;;;;;;;0.40;0.40;;;7.80;99.90;;;;;;5013067;28;20727;-61
2023/11/07 06:42:45;;;;;;;0.50;0.50;;;7.80;99.90;;;;;;5013274;28;20206;-61
2023/11/07 06:45:12;;;;;;;0.52;0.52;;;7.80;99.90;;;;;;5013470;28;20232;-61
2023/11/07 06:47:42;;;;;;;0.45;0.45;;;7.80;99.90;;;;;;5012933;28;20199;-61
2023/11/07 06:50:08;;;;;;;0.40;0.40;;;7.90;99.90;;;;;;5013301;28;20193;-61
2023/11/07 06:52:38;;;;;;;0.40;0.40;;;8.00;99.90;;;;;;5013136;28;20181;-61
2023/11/07 06:55:05;;;;;;;4.00;0.50;;;8.00;99.90;;;;;;5013120;28;20180;-61
2023/11/07 06:57:33;;;;;;;0.40;0.40;;;7.90;99.90;;;;;;5012777;28;20229;-61
2023/11/07 06:59:59;;;;;;;0.40;0.40;;;8.00;99.90;;;;;;5012661;28;20202;-60
2023/11/07 07:02:25;;;;;;;0.80;0.80;;;8.10;99.90;;;;;;5012581;28;20222;-61
2023/11/07 07:04:50;;;;;;;0.40;0.40;;;8.10;99.90;;;;;;5012975;28;20477;-61
2023/11/07 07:07:16;;;;;;;0.37;0.37;;;8.10;99.90;;;;;;5012617;28;20164;-61
2023/11/07 07:09:41;;;;;;;0.40;0.40;;;8.10;99.90;;;;;;5012552;28;20191;-60
2023/11/07 07:12:08;;;;;;;0.43;0.43;;;8.00;99.90;;;;;;5012633;28;20518;-61
2023/11/07 07:14:34;;;;;;;0.30;0.30;;;8.10;99.90;;;;;;5012634;28;20226;-61
2023/11/07 07:17:02;;;;;;;0.47;0.47;;;8.10;99.90;;;;;;5012261;28;20203;-61
2023/11/07 07:19:28;;;;;;;0.40;0.40;;;8.00;99.90;;;;;;5012286;28;20269;-61
2023/11/07 07:21:53;;;;;;;0.40;0.40;;;8.10;99.90;;;;;;5012381;28;20211;-61
2023/11/07 07:24:27;;;;;;;0.40;0.40;;;8.10;99.90;;;;;;5012479;28;20164;-61
2023/11/07 07:26:53;;;;;;;0.38;0.38;;;8.20;99.90;;;;;;5012281;28;20170;-60
2023/11/07 07:29:18;;;;;;;0.50;0.50;;;8.30;99.90;;;;;;5032763;23;21366;-64
2023/11/07 07:31:44;;;;;;;0.40;0.40;;;8.40;99.90;;;;;;5012092;28;20233;-65
2023/11/07 07:34:10;;;;;;;0.30;0.30;;;8.20;99.90;;;;;;5011472;28;20199;-64
2023/11/07 07:36:43;;;;;;;0.50;0.50;;;8.10;99.90;;;;;;5011952;28;20213;-64
2023/11/07 07:39:28;;;;;;;0.30;0.30;;;8.20;99.90;;;;;;5011884;28;20410;-64
2023/11/07 07:42:09;;;;;;;0.40;0.40;;;8.30;99.90;;;;;;5012051;28;20199;-64
2023/11/07 07:44:40;;;;;;;0.30;0.30;;;8.20;99.90;;;;;;5012209;28;20258;-64
2023/11/07 07:47:07;;;;;;;0.50;0.50;;;8.20;99.90;;;;;;5012056;28;20180;-64
2023/11/07 07:49:33;;;;;;;0.40;0.40;;;8.30;99.90;;;;;;5011821;28;20665;-65
2023/11/07 07:52:01;;;;;;;0.83;0.83;;;8.30;99.90;;;;;;5012071;28;20208;-66
2023/11/07 07:54:29;;;;;;;0.30;0.30;;;8.30;99.90;;;;;;5011971;28;20512;-65
2023/11/07 07:56:55;;;;;;;0.40;0.40;;;8.20;99.90;;;;;;5011847;28;20222;-65
2023/11/07 07:59:25;;;;;;;0.30;0.30;;;8.20;99.90;;;;;;5011455;28;20664;-66
2023/11/07 08:01:57;;;;;;;1.95;0.50;;;8.30;99.90;;;;;;5011885;28;20215;-65
2023/11/07 08:04:26;;;;;;;0.30;0.30;;;8.30;99.90;;;;;;5011251;28;20175;-65
2023/11/07 08:06:52;;;;;;;0.52;0.52;;;8.40;99.90;;;;;;5010119;28;20230;-64
2023/11/07 08:09:22;;;;;;;3.22;0.77;;;8.50;99.90;;;;;;5011603;28;20199;-65
2023/11/07 08:11:50;;;;;;;0.45;0.40;;;8.50;99.90;;;;;;5011960;28;20167;-64
2023/11/07 08:14:16;;;;;;;0.50;0.50;;;8.50;99.90;;;;;;5011819;28;20172;-65
2023/11/07 08:16:43;;;;;;;0.40;0.40;;;8.60;99.90;;;;;;5010329;28;20186;-65
2023/11/07 08:19:10;;;;;;;0.40;0.40;;;8.70;99.90;;;;;;5011475;28;20176;-64
2023/11/07 08:21:37;;;;;;;0.30;0.30;;;8.80;99.90;;;;;;5011653;28;20209;-64
2023/11/07 08:24:04;;;;;;;0.40;0.40;;;8.80;99.90;;;;;;5011878;28;20204;-64
2023/11/07 08:26:30;;;;;;;0.60;0.60;;;8.80;99.90;;;;;;5012069;28;20222;-65
2023/11/07 08:28:55;;;;;;;0.30;0.30;;;8.80;99.90;;;;;;5011591;28;20168;-65
2023/11/07 08:31:21;;;;;;;0.50;0.50;;;8.80;99.90;;;;;;5011512;28;20565;-64
2023/11/07 08:33:49;;;;;;;0.40;0.40;;;8.70;99.90;;;;;;5011604;28;20202;-65
2023/11/07 08:36:17;;;;;;;0.60;0.60;;;8.80;99.90;;;;;;5010518;28;20265;-64
2023/11/07 08:38:43;;;;;;;0.30;0.30;;;8.70;99.90;;;;;;5011282;28;20720;-64
2023/11/07 08:41:09;;;;;;;0.30;0.30;;;8.50;99.90;;;;;;5011619;28;20198;-64
2023/11/07 08:43:36;;;;;;;0.40;0.40;;;8.40;99.90;;;;;;5011493;28;20172;-64
2023/11/07 08:46:01;;;;;;;0.60;0.50;;;8.40;99.90;;;;;;5013141;28;20717;-64
2023/11/07 08:48:28;;;;;;;0.40;0.40;;;8.50;99.90;;;;;;5015016;28;20262;-65
2023/11/07 08:50:54;;;;;;;0.50;0.50;;;8.60;99.90;;;;;;5015228;28;20673;-65
2023/11/07 08:53:20;;;;;;;0.30;0.30;;;8.70;99.90;;;;;;5015342;28;20179;-64
2023/11/07 08:55:49;;;;;;;0.40;0.40;;;8.70;99.90;;;;;;5015370;28;20485;-64
2023/11/07 08:58:16;;;;;;;0.40;0.40;;;8.80;99.90;;;;;;5014869;28;20423;-65
2023/11/07 09:00:43;;;;;;;0.30;0.30;;;8.90;99.90;;;;;;5015110;28;20203;-64
2023/11/07 09:03:09;;;;;;;0.30;0.30;;;8.80;99.90;;;;;;5014957;28;20203;-64
2023/11/07 09:05:34;;;;;;;0.40;0.40;;;8.90;99.90;;;;;;5015057;28;20175;-64
2023/11/07 09:08:02;;;;;;;0.93;0.93;;;8.90;99.90;;;;;;5014808;28;20171;-64
2023/11/07 09:10:29;;;;;;;0.80;0.80;;;9.00;99.90;;;;;;5014783;28;20202;-64
2023/11/07 09:12:55;;;;;;;0.77;0.77;;;9.10;99.90;;;;;;5014918;28;20183;-63
2023/11/07 09:15:21;;;;;;;0.50;0.40;;;9.20;99.90;;;;;;5014934;28;20633;-64
2023/11/07 09:17:47;;;;;;;1.57;0.70;;;9.10;99.60;;;;;;5015266;28;20250;-64
2023/11/07 09:20:14;;;;;;;0.40;0.40;;;9.20;99.90;;;;;;5014701;28;20532;-63
2023/11/07 09:22:41;;;;;;;0.40;0.40;;;9.30;99.30;;;;;;5014940;28;20540;-64
2023/11/07 09:25:08;;;;;;;0.30;0.30;;;9.10;99.00;;;;;;5014784;28;20210;-64
2023/11/07 09:27:36;;;;;;;0.40;0.40;;;9.20;98.80;;;;;;5014573;28;20164;-64
2023/11/07 09:30:09;;;;;;;0.30;0.30;;;9.20;99.30;;;;;;5014133;28;20211;-64
2023/11/07 09:32:44;;;;;;;0.88;0.40;;;9.20;99.60;;;;;;5012752;28;20178;-64
2023/11/07 09:35:11;;;;;;;0.40;0.40;;;9.10;99.80;;;;;;5014054;28;20613;-64
2023/11/07 09:37:39;;;;;;;0.50;0.50;;;9.20;99.80;;;;;;5014136;28;20172;-65
2023/11/07 09:40:10;;;;;;;0.40;0.40;;;9.30;99.80;;;;;;5014175;28;20689;-65
2023/11/07 09:42:36;;;;;;;0.77;0.77;;;9.40;99.90;;;;;;5014185;28;20227;-65
2023/11/07 09:45:18;;;;;;;0.40;0.40;;;9.50;99.20;;;;;;5014474;28;20258;-65
2023/11/07 09:47:47;;;;;;;0.73;0.63;;;9.60;99.00;;;;;;5014733;28;20221;-64
2023/11/07 09:50:16;;;;;;;0.50;0.50;;;9.80;99.00;;;;;;5014124;28;20204;-64
2023/11/07 09:52:45;;;;;;;0.40;0.40;;;9.90;98.30;;;;;;5014123;28;20176;-67
2023/11/07 09:55:15;;;;;;;0.40;0.40;;;9.90;98.30;;;;;;5013766;28;20262;-64
2023/11/07 09:57:47;;;;;;;0.40;0.40;;;9.90;98.00;;;;;;5012990;28;20179;-64
2023/11/07 10:00:20;;;;;;;0.75;0.75;;;10.10;97.40;;;;;;5013927;28;20199;-64
2023/11/07 10:02:46;;;;;;;0.30;0.30;;;10.30;97.30;;;;;;5014107;28;20701;-65
2023/11/07 10:05:12;;;;;;;0.40;0.40;;;10.30;96.90;;;;;;5013941;28;20566;-64
2023/11/07 10:07:41;;;;;;;0.50;0.50;;;10.30;96.40;;;;;;5013783;28;20436;-64
2023/11/07 10:10:08;;;;;;;0.43;0.43;;;10.40;95.90;;;;;;5013863;28;20442;-65
2023/11/07 10:12:42;;;;;;;0.82;0.82;;;10.40;97.00;;;;;;5013725;28;20598;-64
2023/11/07 10:15:19;;;;;;;0.93;0.45;;;10.40;96.60;;;;;;5013846;28;20183;-64
2023/11/07 10:18:04;;;;;;;0.85;0.85;;;10.20;96.20;;;;;;5013690;28;20267;-64
2023/11/07 10:20:31;;;;;;;0.40;0.40;;;10.20;96.40;;;;;;5013640;28;20196;-63
2023/11/07 10:23:00;;;;;;;0.40;0.40;;;10.10;96.70;;;;;;5013653;28;20207;-65
2023/11/07 10:25:28;;;;;;;0.57;0.57;;;10.30;96.40;;;;;;5013598;28;20172;-64
2023/11/07 10:27:59;;;;;;;0.70;0.60;;;10.40;96.50;;;;;;5013600;28;20712;-64
2023/11/07 10:30:44;;;;;;;0.43;0.43;;;10.40;96.70;;;;;;5013141;28;20265;-65
2023/11/07 10:33:34;;;;;;;1.47;1.43;;;10.50;96.40;;;;;;5013517;28;20410;-65
2023/11/07 10:36:01;;;;;;;12.98;0.95;;;10.30;96.00;;;;;;5013483;28;20444;-64
2023/11/07 10:38:31;;;;;;;0.30;0.30;;;10.00;95.80;;;;;;5013176;28;20253;-66
2023/11/07 10:40:58;;;;;;;0.50;0.50;;;9.90;97.40;;;;;;5013118;28;20437;-66
2023/11/07 10:43:37;;;;;;;0.30;0.30;;;9.90;97.10;;;;;;5013342;28;20180;-66
2023/11/07 10:46:04;;;;;;;0.40;0.40;;;9.90;96.50;;;;;;5013147;28;20217;-65
2023/11/07 10:48:32;;;;;;;0.40;0.40;;;10.00;96.20;;;;;;5012867;28;20183;-66
2023/11/07 10:51:03;;;;;;;1.15;0.50;;;10.10;96.20;;;;;;5009335;28;20235;-65
2023/11/07 10:53:33;;;;;;;1.03;0.60;;;10.20;96.00;;;;;;5001692;28;20176;-65
2023/11/07 10:56:00;;;;;;;1.33;1.03;;;10.30;96.20;;;;;;5002356;28;20422;-66
2023/11/07 10:58:33;;;;;;;0.70;0.63;;;10.40;95.80;;;;;;5012733;28;20411;-65
2023/11/07 11:01:03;;;;;;;0.50;0.50;;;10.50;95.90;;;;;;4997634;28;20733;-64
2023/11/07 11:03:30;;;;;;;0.50;0.50;;;10.50;95.50;;;;;;4993250;28;20226;-63
2023/11/07 11:06:00;;;;;;;5.23;0.87;;;10.30;95.60;;;;;;4993621;28;20411;-63
2023/11/07 11:08:26;;;;;;;0.40;0.40;;;10.30;95.70;;;;;;4997804;28;20419;-63
2023/11/07 11:10:56;;;;;;;0.40;0.40;;;10.40;96.60;;;;;;5012684;28;20214;-63
2023/11/07 11:13:24;;;;;;;0.30;0.30;;;10.50;96.80;;;;;;5012824;28;20175;-63
2023/11/07 11:15:53;;;;;;;0.30;0.30;;;10.50;96.30;;;;;;5012676;28;20184;-63
2023/11/07 11:18:34;;;;;;;0.30;0.30;;;10.50;96.30;;;;;;5012410;28;20175;-63
2023/11/07 11:21:09;;;;;;;0.40;0.40;;;10.40;96.30;;;;;;5012640;28;21083;-63
2023/11/07 11:24:13;;;;;;;0.50;0.50;;;10.40;96.90;;;;;;5012615;28;20171;-63
2023/11/07 11:27:22;;;;;;;0.47;0.47;;;10.40;96.70;;;;;;4987054;28;20597;-63
2023/11/07 11:29:49;;;;;;;0.40;0.40;;;10.20;96.70;;;;;;4992578;28;20210;-63
2023/11/07 11:32:34;;;;;;;0.60;0.60;;;10.10;97.30;;;;;;4992821;28;20187;-63
2023/11/07 11:35:17;;;;;;;0.77;0.77;;;10.20;97.90;;;;;;4992624;28;20618;-63
2023/11/07 11:38:16;;;;;;;0.77;0.77;;;10.30;98.00;;;;;;4992707;28;20529;-63
2023/11/07 11:40:59;;;;;;;0.60;0.60;;;10.20;98.00;;;;;;4992666;28;20311;-63
2023/11/07 11:43:27;;;;;;;0.30;0.30;;;10.10;97.70;;;;;;4992602;28;20582;-63
2023/11/07 11:46:02;;;;;;;0.52;0.52;;;10.20;98.00;;;;;;4992640;28;20551;-63
2023/11/07 11:48:49;;;;;;;0.47;0.40;;;10.00;97.70;;;;;;4992362;28;20167;-63
2023/11/07 11:51:38;;;;;;;0.60;0.50;;;10.00;97.80;;;;;;4992273;28;20202;-63
2023/11/07 11:54:07;;;;;;;0.40;0.40;;;9.90;98.00;;;;;;4992346;28;20689;-63
2023/11/07 11:56:54;;;;;;;0.40;0.40;;;9.90;98.20;;;;;;4992415;28;20175;-63
2023/11/07 11:59:28;;;;;;;0.40;0.40;;;10.10;97.60;;;;;;4991960;28;20211;-64
2023/11/07 12:01:59;;;;;;;0.50;0.50;;;10.30;97.80;;;;;;4991854;28;20192;-64
2023/11/07 12:04:38;;;;;;;3.00;0.52;;;10.40;97.70;;;;;;4992237;28;20184;-64
2023/11/07 12:07:07;;;;;;;0.63;0.60;;;10.30;97.60;;;;;;4992190;28;20183;-64
2023/11/07 12:09:37;;;;;;;0.40;0.40;;;10.20;97.00;;;;;;4992058;28;20274;-64
2023/11/07 12:12:04;;;;;;;0.30;0.30;;;10.10;96.80;;;;;;4992355;28;20446;-64
2023/11/07 12:14:30;;;;;;;0.98;0.88;;;10.00;96.90;;;;;;4992323;28;20241;-64
2023/11/07 12:16:59;;;;;;;0.40;0.40;;;9.80;98.20;;;;;;4992032;28;20199;-64
2023/11/07 12:19:25;;;;;;;0.77;0.73;;;9.70;98.10;;;;;;4991994;28;20203;-64
2023/11/07 12:21:55;;;;;;;0.40;0.40;;;9.80;98.20;;;;;;4998078;28;20196;-64
2023/11/07 12:24:21;;;;;;;0.50;0.50;;;9.70;98.00;;;;;;4999483;28;20256;-64
2023/11/07 12:26:47;;;;;;;0.40;0.40;;;9.60;97.80;;;;;;4998371;28;20650;-64
2023/11/07 12:29:14;;;;;;;0.75;0.75;;;9.50;97.40;;;;;;4998170;28;20494;-64
2023/11/07 12:31:40;;;;;;;2.45;2.25;;;9.40;96.80;;;;;;5006936;28;20422;-64
2023/11/07 12:34:07;;;;;;;0.40;0.40;;;9.40;97.00;;;;;;5016909;28;20179;-64
2023/11/07 12:36:35;;;;;;;0.43;0.43;;;9.40;97.00;;;;;;5018348;28;20262;-64
2023/11/07 12:39:03;;;;;;;0.40;0.40;;;9.50;97.30;;;;;;5017786;28;20258;-64
2023/11/07 12:41:32;;;;;;;0.30;0.30;;;9.60;97.30;;;;;;5018058;28;20276;-64
2023/11/07 12:44:09;;;;;;;0.38;0.38;;;9.60;96.80;;;;;;5016768;28;20278;-63
2023/11/07 12:46:35;;;;;;;0.50;0.50;;;9.30;97.40;;;;;;5018163;28;20699;-64
2023/11/07 12:49:02;;;;;;;0.30;0.30;;;9.00;97.90;;;;;;5017844;28;20266;-63
2023/11/07 12:51:28;;;;;;;0.30;0.30;;;9.00;98.20;;;;;;5018114;28;20167;-64
2023/11/07 12:53:54;;;;;;;0.30;0.30;;;9.00;97.00;;;;;;5017883;28;20174;-64
2023/11/07 12:56:20;;;;;;;0.30;0.30;;;9.00;97.20;;;;;;5018036;28;20638;-64
2023/11/07 12:58:48;;;;;;;2.05;1.40;;;9.10;97.70;;;;;;5017789;28;20696;-64
2023/11/07 13:01:15;;;;;;;0.30;0.30;;;9.10;98.10;;;;;;5018024;28;20214;-64